sensor_id;sensor_type;location;lat;lon;timestamp;P1;durP1;ratioP1;P2;durP2;ratioP2
56005;SDS011;41888;44.696;10.522;2023-09-18T00:00:48;20.02;;;11.88;;
56005;SDS011;41888;44.696;10.522;2023-09-18T00:03:15;21.90;;;12.43;;
56005;SDS011;41888;44.696;10.522;2023-09-18T00:05:43;23.00;;;12.60;;
56005;SDS011;41888;44.696;10.522;2023-09-18T00:08:11;20.00;;;11.38;;
56005;SDS011;41888;44.696;10.522;2023-09-18T00:10:37;17.95;;;12.57;;
56005;SDS011;41888;44.696;10.522;2023-09-18T00:13:03;21.33;;;11.95;;
56005;SDS011;41888;44.696;10.522;2023-09-18T00:15:30;26.45;;;11.98;;
56005;SDS011;41888;44.696;10.522;2023-09-18T00:17:56;17.83;;;11.85;;
56005;SDS011;41888;44.696;10.522;2023-09-18T00:20:22;25.83;;;13.20;;
56005;SDS011;41888;44.696;10.522;2023-09-18T00:22:52;18.15;;;11.98;;
56005;SDS011;41888;44.696;10.522;2023-09-18T00:25:21;24.95;;;13.75;;
56005;SDS011;41888;44.696;10.522;2023-09-18T00:27:48;21.08;;;13.05;;
56005;SDS011;41888;44.696;10.522;2023-09-18T00:30:14;20.50;;;12.30;;
56005;SDS011;41888;44.696;10.522;2023-09-18T00:32:40;23.08;;;12.75;;
56005;SDS011;41888;44.696;10.522;2023-09-18T00:35:07;24.63;;;13.40;;
56005;SDS011;41888;44.696;10.522;2023-09-18T00:37:33;24.25;;;13.77;;
56005;SDS011;41888;44.696;10.522;2023-09-18T00:40:00;27.35;;;12.13;;
56005;SDS011;41888;44.696;10.522;2023-09-18T00:42:27;21.50;;;13.50;;
56005;SDS011;41888;44.696;10.522;2023-09-18T00:44:53;21.58;;;13.00;;
56005;SDS011;41888;44.696;10.522;2023-09-18T00:47:20;23.17;;;12.68;;
56005;SDS011;41888;44.696;10.522;2023-09-18T00:49:47;16.98;;;10.80;;
56005;SDS011;41888;44.696;10.522;2023-09-18T00:52:15;19.42;;;11.13;;
56005;SDS011;41888;44.696;10.522;2023-09-18T00:54:43;24.83;;;12.27;;
56005;SDS011;41888;44.696;10.522;2023-09-18T00:57:11;21.55;;;11.95;;
56005;SDS011;41888;44.696;10.522;2023-09-18T00:59:38;22.40;;;11.65;;
56005;SDS011;41888;44.696;10.522;2023-09-18T01:02:04;18.90;;;11.05;;
56005;SDS011;41888;44.696;10.522;2023-09-18T01:04:31;26.40;;;11.15;;
56005;SDS011;41888;44.696;10.522;2023-09-18T01:06:59;18.70;;;11.25;;
56005;SDS011;41888;44.696;10.522;2023-09-18T01:09:29;17.35;;;11.40;;
56005;SDS011;41888;44.696;10.522;2023-09-18T01:17:34;22.42;;;11.07;;
56005;SDS011;41888;44.696;10.522;2023-09-18T01:20:05;21.13;;;11.57;;
56005;SDS011;41888;44.696;10.522;2023-09-18T01:22:35;21.92;;;13.00;;
56005;SDS011;41888;44.696;10.522;2023-09-18T01:25:02;20.55;;;11.85;;
56005;SDS011;41888;44.696;10.522;2023-09-18T01:27:28;25.58;;;12.60;;
56005;SDS011;41888;44.696;10.522;2023-09-18T01:29:54;18.77;;;11.50;;
56005;SDS011;41888;44.696;10.522;2023-09-18T01:32:21;22.08;;;11.60;;
56005;SDS011;41888;44.696;10.522;2023-09-18T01:34:52;19.25;;;12.63;;
56005;SDS011;41888;44.696;10.522;2023-09-18T01:37:21;20.35;;;12.20;;
56005;SDS011;41888;44.696;10.522;2023-09-18T01:39:51;21.77;;;11.57;;
56005;SDS011;41888;44.696;10.522;2023-09-18T01:42:18;18.65;;;11.20;;
56005;SDS011;41888;44.696;10.522;2023-09-18T01:44:46;20.80;;;11.13;;
56005;SDS011;41888;44.696;10.522;2023-09-18T01:47:16;20.45;;;11.55;;
56005;SDS011;41888;44.696;10.522;2023-09-18T01:49:44;19.80;;;12.07;;
56005;SDS011;41888;44.696;10.522;2023-09-18T01:52:11;17.52;;;11.05;;
56005;SDS011;41888;44.696;10.522;2023-09-18T01:54:37;19.08;;;12.10;;
56005;SDS011;41888;44.696;10.522;2023-09-18T01:57:06;22.45;;;11.40;;
56005;SDS011;41888;44.696;10.522;2023-09-18T01:59:32;19.92;;;12.32;;
56005;SDS011;41888;44.696;10.522;2023-09-18T02:01:59;19.73;;;11.50;;
56005;SDS011;41888;44.696;10.522;2023-09-18T02:04:28;18.70;;;11.18;;
56005;SDS011;41888;44.696;10.522;2023-09-18T02:06:55;18.90;;;11.18;;
56005;SDS011;41888;44.696;10.522;2023-09-18T02:09:23;18.20;;;11.55;;
56005;SDS011;41888;44.696;10.522;2023-09-18T02:11:49;18.88;;;11.77;;
56005;SDS011;41888;44.696;10.522;2023-09-18T02:14:15;19.02;;;12.05;;
56005;SDS011;41888;44.696;10.522;2023-09-18T02:16:42;18.80;;;10.90;;
56005;SDS011;41888;44.696;10.522;2023-09-18T02:19:10;20.30;;;12.25;;
56005;SDS011;41888;44.696;10.522;2023-09-18T02:21:37;17.77;;;10.75;;
56005;SDS011;41888;44.696;10.522;2023-09-18T02:24:04;19.42;;;11.50;;
56005;SDS011;41888;44.696;10.522;2023-09-18T02:26:30;17.95;;;11.77;;
56005;SDS011;41888;44.696;10.522;2023-09-18T02:28:58;17.30;;;11.23;;
56005;SDS011;41888;44.696;10.522;2023-09-18T02:31:26;18.30;;;10.68;;
56005;SDS011;41888;44.696;10.522;2023-09-18T02:33:52;23.13;;;10.90;;
56005;SDS011;41888;44.696;10.522;2023-09-18T02:36:19;19.33;;;11.20;;
56005;SDS011;41888;44.696;10.522;2023-09-18T02:38:45;19.05;;;10.77;;
56005;SDS011;41888;44.696;10.522;2023-09-18T02:41:11;16.20;;;10.68;;
56005;SDS011;41888;44.696;10.522;2023-09-18T02:43:37;20.35;;;10.63;;
56005;SDS011;41888;44.696;10.522;2023-09-18T02:46:04;28.27;;;11.10;;
56005;SDS011;41888;44.696;10.522;2023-09-18T02:48:30;16.80;;;11.05;;
56005;SDS011;41888;44.696;10.522;2023-09-18T02:51:00;15.85;;;10.98;;
56005;SDS011;41888;44.696;10.522;2023-09-18T02:53:27;16.02;;;10.05;;
56005;SDS011;41888;44.696;10.522;2023-09-18T02:55:54;18.05;;;10.10;;
56005;SDS011;41888;44.696;10.522;2023-09-18T02:58:21;16.77;;;10.77;;
56005;SDS011;41888;44.696;10.522;2023-09-18T03:00:50;19.05;;;11.27;;
56005;SDS011;41888;44.696;10.522;2023-09-18T03:03:18;21.58;;;12.05;;
56005;SDS011;41888;44.696;10.522;2023-09-18T03:05:44;18.52;;;11.88;;
56005;SDS011;41888;44.696;10.522;2023-09-18T03:08:11;15.95;;;10.30;;
56005;SDS011;41888;44.696;10.522;2023-09-18T03:10:39;16.40;;;10.30;;
56005;SDS011;41888;44.696;10.522;2023-09-18T03:13:06;15.68;;;10.23;;
56005;SDS011;41888;44.696;10.522;2023-09-18T03:15:34;21.00;;;11.48;;
56005;SDS011;41888;44.696;10.522;2023-09-18T03:18:01;17.40;;;10.05;;
56005;SDS011;41888;44.696;10.522;2023-09-18T03:20:29;17.38;;;11.13;;
56005;SDS011;41888;44.696;10.522;2023-09-18T03:22:56;15.88;;;10.25;;
56005;SDS011;41888;44.696;10.522;2023-09-18T03:25:24;15.02;;;9.73;;
56005;SDS011;41888;44.696;10.522;2023-09-18T03:27:51;17.67;;;11.00;;
56005;SDS011;41888;44.696;10.522;2023-09-18T03:30:19;16.42;;;11.32;;
56005;SDS011;41888;44.696;10.522;2023-09-18T03:32:46;16.63;;;10.63;;
56005;SDS011;41888;44.696;10.522;2023-09-18T03:35:13;17.98;;;10.35;;
56005;SDS011;41888;44.696;10.522;2023-09-18T03:37:44;17.85;;;10.15;;
56005;SDS011;41888;44.696;10.522;2023-09-18T03:40:10;17.35;;;9.77;;
56005;SDS011;41888;44.696;10.522;2023-09-18T03:42:37;17.00;;;10.73;;
56005;SDS011;41888;44.696;10.522;2023-09-18T03:45:05;17.92;;;11.02;;
56005;SDS011;41888;44.696;10.522;2023-09-18T03:47:33;17.70;;;10.85;;
56005;SDS011;41888;44.696;10.522;2023-09-18T03:50:03;18.30;;;11.38;;
56005;SDS011;41888;44.696;10.522;2023-09-18T03:52:33;34.78;;;12.05;;
56005;SDS011;41888;44.696;10.522;2023-09-18T03:54:59;17.83;;;10.88;;
56005;SDS011;41888;44.696;10.522;2023-09-18T03:57:26;22.45;;;12.23;;
56005;SDS011;41888;44.696;10.522;2023-09-18T03:59:52;16.95;;;9.93;;
56005;SDS011;41888;44.696;10.522;2023-09-18T04:02:18;21.60;;;10.95;;
56005;SDS011;41888;44.696;10.522;2023-09-18T04:04:46;19.77;;;11.35;;
56005;SDS011;41888;44.696;10.522;2023-09-18T04:07:12;16.00;;;10.80;;
56005;SDS011;41888;44.696;10.522;2023-09-18T04:09:41;15.38;;;10.73;;
56005;SDS011;41888;44.696;10.522;2023-09-18T04:12:08;19.58;;;10.95;;
56005;SDS011;41888;44.696;10.522;2023-09-18T04:14:34;24.85;;;12.20;;
56005;SDS011;41888;44.696;10.522;2023-09-18T04:17:01;17.70;;;11.07;;
56005;SDS011;41888;44.696;10.522;2023-09-18T04:19:27;17.35;;;10.63;;
56005;SDS011;41888;44.696;10.522;2023-09-18T04:21:54;15.43;;;11.48;;
56005;SDS011;41888;44.696;10.522;2023-09-18T04:24:21;16.77;;;10.48;;
56005;SDS011;41888;44.696;10.522;2023-09-18T04:26:48;18.85;;;10.27;;
56005;SDS011;41888;44.696;10.522;2023-09-18T04:29:17;17.10;;;10.30;;
56005;SDS011;41888;44.696;10.522;2023-09-18T04:31:44;14.25;;;9.70;;
56005;SDS011;41888;44.696;10.522;2023-09-18T04:34:12;18.67;;;10.20;;
56005;SDS011;41888;44.696;10.522;2023-09-18T04:36:38;15.00;;;10.25;;
56005;SDS011;41888;44.696;10.522;2023-09-18T04:39:04;17.35;;;10.82;;
56005;SDS011;41888;44.696;10.522;2023-09-18T04:41:31;17.08;;;9.90;;
56005;SDS011;41888;44.696;10.522;2023-09-18T04:43:58;19.02;;;11.20;;
56005;SDS011;41888;44.696;10.522;2023-09-18T04:46:24;14.20;;;9.82;;
56005;SDS011;41888;44.696;10.522;2023-09-18T04:48:51;17.15;;;11.65;;
56005;SDS011;41888;44.696;10.522;2023-09-18T04:51:17;20.55;;;9.95;;
56005;SDS011;41888;44.696;10.522;2023-09-18T04:53:43;15.93;;;10.77;;
56005;SDS011;41888;44.696;10.522;2023-09-18T04:56:09;18.35;;;10.80;;
56005;SDS011;41888;44.696;10.522;2023-09-18T04:58:35;15.25;;;10.13;;
56005;SDS011;41888;44.696;10.522;2023-09-18T05:01:02;18.02;;;10.48;;
56005;SDS011;41888;44.696;10.522;2023-09-18T05:03:35;18.65;;;11.50;;
56005;SDS011;41888;44.696;10.522;2023-09-18T05:06:01;15.82;;;9.52;;
56005;SDS011;41888;44.696;10.522;2023-09-18T05:08:29;16.05;;;9.70;;
56005;SDS011;41888;44.696;10.522;2023-09-18T05:10:56;13.77;;;9.68;;
56005;SDS011;41888;44.696;10.522;2023-09-18T05:13:22;16.10;;;10.50;;
56005;SDS011;41888;44.696;10.522;2023-09-18T05:15:49;20.65;;;10.25;;
56005;SDS011;41888;44.696;10.522;2023-09-18T05:18:15;18.08;;;10.60;;
56005;SDS011;41888;44.696;10.522;2023-09-18T05:20:41;19.35;;;12.10;;
56005;SDS011;41888;44.696;10.522;2023-09-18T05:23:07;20.98;;;11.10;;
56005;SDS011;41888;44.696;10.522;2023-09-18T05:25:34;17.10;;;10.35;;
56005;SDS011;41888;44.696;10.522;2023-09-18T05:28:03;17.80;;;11.88;;
56005;SDS011;41888;44.696;10.522;2023-09-18T05:30:31;21.25;;;12.20;;
56005;SDS011;41888;44.696;10.522;2023-09-18T05:33:03;18.25;;;11.38;;
56005;SDS011;41888;44.696;10.522;2023-09-18T05:35:51;19.27;;;11.27;;
56005;SDS011;41888;44.696;10.522;2023-09-18T05:38:16;17.33;;;10.85;;
56005;SDS011;41888;44.696;10.522;2023-09-18T05:40:43;16.80;;;10.38;;
56005;SDS011;41888;44.696;10.522;2023-09-18T05:43:10;22.55;;;12.02;;
56005;SDS011;41888;44.696;10.522;2023-09-18T05:45:37;18.83;;;12.05;;
56005;SDS011;41888;44.696;10.522;2023-09-18T05:48:03;18.45;;;12.02;;
56005;SDS011;41888;44.696;10.522;2023-09-18T05:50:35;16.15;;;11.05;;
56005;SDS011;41888;44.696;10.522;2023-09-18T05:53:03;17.27;;;9.80;;
56005;SDS011;41888;44.696;10.522;2023-09-18T05:55:30;19.70;;;11.48;;
56005;SDS011;41888;44.696;10.522;2023-09-18T05:57:57;16.50;;;10.93;;
56005;SDS011;41888;44.696;10.522;2023-09-18T06:00:23;15.88;;;10.88;;
56005;SDS011;41888;44.696;10.522;2023-09-18T06:02:50;23.05;;;12.00;;
56005;SDS011;41888;44.696;10.522;2023-09-18T06:05:16;21.45;;;12.35;;
56005;SDS011;41888;44.696;10.522;2023-09-18T06:07:46;22.20;;;12.95;;
56005;SDS011;41888;44.696;10.522;2023-09-18T06:10:16;22.88;;;13.88;;
56005;SDS011;41888;44.696;10.522;2023-09-18T06:12:43;22.65;;;13.32;;
56005;SDS011;41888;44.696;10.522;2023-09-18T06:15:10;26.25;;;14.05;;
56005;SDS011;41888;44.696;10.522;2023-09-18T06:17:37;21.85;;;12.65;;
56005;SDS011;41888;44.696;10.522;2023-09-18T06:20:05;18.67;;;12.07;;
56005;SDS011;41888;44.696;10.522;2023-09-18T06:22:38;20.02;;;13.07;;
56005;SDS011;41888;44.696;10.522;2023-09-18T06:25:06;20.80;;;13.23;;
56005;SDS011;41888;44.696;10.522;2023-09-18T06:27:34;21.45;;;12.68;;
56005;SDS011;41888;44.696;10.522;2023-09-18T06:30:02;18.25;;;13.00;;
56005;SDS011;41888;44.696;10.522;2023-09-18T06:32:29;21.20;;;13.05;;
56005;SDS011;41888;44.696;10.522;2023-09-18T06:34:55;19.58;;;13.45;;
56005;SDS011;41888;44.696;10.522;2023-09-18T06:37:23;23.33;;;12.82;;
56005;SDS011;41888;44.696;10.522;2023-09-18T06:39:49;23.10;;;13.98;;
56005;SDS011;41888;44.696;10.522;2023-09-18T06:42:16;22.73;;;13.45;;
56005;SDS011;41888;44.696;10.522;2023-09-18T06:44:42;21.33;;;13.30;;
56005;SDS011;41888;44.696;10.522;2023-09-18T06:47:09;21.98;;;13.30;;
56005;SDS011;41888;44.696;10.522;2023-09-18T06:49:35;21.73;;;14.32;;
56005;SDS011;41888;44.696;10.522;2023-09-18T06:52:02;26.08;;;14.63;;
56005;SDS011;41888;44.696;10.522;2023-09-18T06:54:28;26.67;;;15.73;;
56005;SDS011;41888;44.696;10.522;2023-09-18T06:56:54;25.05;;;13.63;;
56005;SDS011;41888;44.696;10.522;2023-09-18T06:59:20;25.02;;;15.13;;
56005;SDS011;41888;44.696;10.522;2023-09-18T07:01:47;26.48;;;13.93;;
56005;SDS011;41888;44.696;10.522;2023-09-18T07:04:13;23.50;;;12.82;;
56005;SDS011;41888;44.696;10.522;2023-09-18T07:06:39;23.42;;;14.23;;
56005;SDS011;41888;44.696;10.522;2023-09-18T07:09:05;20.20;;;12.98;;
56005;SDS011;41888;44.696;10.522;2023-09-18T07:11:35;22.77;;;13.73;;
56005;SDS011;41888;44.696;10.522;2023-09-18T07:14:02;24.35;;;14.20;;
56005;SDS011;41888;44.696;10.522;2023-09-18T07:16:31;20.30;;;13.88;;
56005;SDS011;41888;44.696;10.522;2023-09-18T07:18:58;24.17;;;14.20;;
56005;SDS011;41888;44.696;10.522;2023-09-18T07:21:25;22.70;;;14.02;;
56005;SDS011;41888;44.696;10.522;2023-09-18T07:23:51;24.38;;;15.25;;
56005;SDS011;41888;44.696;10.522;2023-09-18T07:26:17;23.65;;;14.18;;
56005;SDS011;41888;44.696;10.522;2023-09-18T07:28:43;22.80;;;14.63;;
56005;SDS011;41888;44.696;10.522;2023-09-18T07:31:11;22.73;;;13.55;;
56005;SDS011;41888;44.696;10.522;2023-09-18T07:33:39;23.45;;;13.88;;
56005;SDS011;41888;44.696;10.522;2023-09-18T07:36:06;22.30;;;14.18;;
56005;SDS011;41888;44.696;10.522;2023-09-18T07:38:32;22.95;;;13.93;;
56005;SDS011;41888;44.696;10.522;2023-09-18T07:40:59;27.27;;;15.25;;
56005;SDS011;41888;44.696;10.522;2023-09-18T07:43:25;23.73;;;15.35;;
56005;SDS011;41888;44.696;10.522;2023-09-18T07:45:52;26.45;;;14.98;;
56005;SDS011;41888;44.696;10.522;2023-09-18T07:48:19;25.33;;;14.95;;
56005;SDS011;41888;44.696;10.522;2023-09-18T07:50:47;26.02;;;15.90;;
56005;SDS011;41888;44.696;10.522;2023-09-18T07:53:14;28.85;;;15.90;;
56005;SDS011;41888;44.696;10.522;2023-09-18T07:55:41;32.28;;;18.35;;
56005;SDS011;41888;44.696;10.522;2023-09-18T07:58:07;33.22;;;17.70;;
56005;SDS011;41888;44.696;10.522;2023-09-18T08:00:34;32.17;;;19.40;;
56005;SDS011;41888;44.696;10.522;2023-09-18T08:03:00;36.75;;;19.73;;
56005;SDS011;41888;44.696;10.522;2023-09-18T08:05:27;37.00;;;19.75;;
56005;SDS011;41888;44.696;10.522;2023-09-18T08:07:54;43.97;;;22.05;;
56005;SDS011;41888;44.696;10.522;2023-09-18T08:10:24;38.78;;;19.88;;
56005;SDS011;41888;44.696;10.522;2023-09-18T08:12:51;35.97;;;19.33;;
56005;SDS011;41888;44.696;10.522;2023-09-18T08:15:18;33.60;;;19.05;;
56005;SDS011;41888;44.696;10.522;2023-09-18T08:17:45;34.38;;;18.60;;
56005;SDS011;41888;44.696;10.522;2023-09-18T08:20:13;31.08;;;19.00;;
56005;SDS011;41888;44.696;10.522;2023-09-18T08:22:40;29.08;;;16.27;;
56005;SDS011;41888;44.696;10.522;2023-09-18T08:25:07;25.17;;;15.20;;
56005;SDS011;41888;44.696;10.522;2023-09-18T08:27:36;27.00;;;16.75;;
56005;SDS011;41888;44.696;10.522;2023-09-18T08:30:08;28.35;;;14.77;;
56005;SDS011;41888;44.696;10.522;2023-09-18T08:32:36;24.60;;;14.63;;
56005;SDS011;41888;44.696;10.522;2023-09-18T08:35:03;24.20;;;14.43;;
56005;SDS011;41888;44.696;10.522;2023-09-18T08:37:30;21.17;;;13.40;;
56005;SDS011;41888;44.696;10.522;2023-09-18T08:39:57;24.63;;;13.35;;
56005;SDS011;41888;44.696;10.522;2023-09-18T08:42:25;21.13;;;14.07;;
56005;SDS011;41888;44.696;10.522;2023-09-18T08:44:56;27.63;;;14.88;;
56005;SDS011;41888;44.696;10.522;2023-09-18T08:47:25;25.15;;;15.38;;
56005;SDS011;41888;44.696;10.522;2023-09-18T08:49:52;30.05;;;15.10;;
56005;SDS011;41888;44.696;10.522;2023-09-18T08:52:20;25.23;;;14.48;;
56005;SDS011;41888;44.696;10.522;2023-09-18T08:54:47;24.58;;;13.77;;
56005;SDS011;41888;44.696;10.522;2023-09-18T08:57:16;23.58;;;14.18;;
56005;SDS011;41888;44.696;10.522;2023-09-18T08:59:42;25.48;;;13.55;;
56005;SDS011;41888;44.696;10.522;2023-09-18T09:02:11;23.88;;;13.52;;
56005;SDS011;41888;44.696;10.522;2023-09-18T09:04:38;24.98;;;13.13;;
56005;SDS011;41888;44.696;10.522;2023-09-18T09:07:04;22.02;;;13.95;;
56005;SDS011;41888;44.696;10.522;2023-09-18T09:09:31;21.20;;;14.13;;
56005;SDS011;41888;44.696;10.522;2023-09-18T09:11:58;28.00;;;15.63;;
56005;SDS011;41888;44.696;10.522;2023-09-18T09:14:24;32.15;;;17.17;;
56005;SDS011;41888;44.696;10.522;2023-09-18T09:16:53;25.63;;;14.60;;
56005;SDS011;41888;44.696;10.522;2023-09-18T09:19:29;25.63;;;16.13;;
56005;SDS011;41888;44.696;10.522;2023-09-18T09:21:57;31.23;;;16.13;;
56005;SDS011;41888;44.696;10.522;2023-09-18T09:24:39;26.15;;;15.73;;
56005;SDS011;41888;44.696;10.522;2023-09-18T09:27:07;25.48;;;15.40;;
56005;SDS011;41888;44.696;10.522;2023-09-18T09:29:34;23.60;;;14.73;;
56005;SDS011;41888;44.696;10.522;2023-09-18T09:32:16;26.02;;;16.38;;
56005;SDS011;41888;44.696;10.522;2023-09-18T09:34:44;28.85;;;16.83;;
56005;SDS011;41888;44.696;10.522;2023-09-18T09:37:11;27.13;;;16.42;;
56005;SDS011;41888;44.696;10.522;2023-09-18T09:39:50;27.55;;;15.43;;
56005;SDS011;41888;44.696;10.522;2023-09-18T09:42:17;27.67;;;16.38;;
56005;SDS011;41888;44.696;10.522;2023-09-18T09:45:00;28.30;;;16.40;;
56005;SDS011;41888;44.696;10.522;2023-09-18T09:47:32;35.80;;;15.80;;
56005;SDS011;41888;44.696;10.522;2023-09-18T09:50:03;27.10;;;16.27;;
56005;SDS011;41888;44.696;10.522;2023-09-18T09:52:44;27.55;;;15.23;;
56005;SDS011;41888;44.696;10.522;2023-09-18T09:55:29;27.58;;;16.60;;
56005;SDS011;41888;44.696;10.522;2023-09-18T09:58:03;29.40;;;16.77;;
56005;SDS011;41888;44.696;10.522;2023-09-18T10:00:51;27.42;;;15.77;;
56005;SDS011;41888;44.696;10.522;2023-09-18T10:03:21;27.58;;;17.60;;
56005;SDS011;41888;44.696;10.522;2023-09-18T10:05:50;30.52;;;16.38;;
56005;SDS011;41888;44.696;10.522;2023-09-18T10:08:24;31.42;;;17.02;;
56005;SDS011;41888;44.696;10.522;2023-09-18T10:10:53;28.27;;;16.75;;
56005;SDS011;41888;44.696;10.522;2023-09-18T10:13:32;30.10;;;17.85;;
56005;SDS011;41888;44.696;10.522;2023-09-18T10:16:12;29.38;;;16.95;;
56005;SDS011;41888;44.696;10.522;2023-09-18T10:24:34;43.25;;;19.08;;
56005;SDS011;41888;44.696;10.522;2023-09-18T10:27:06;29.88;;;17.92;;
56005;SDS011;41888;44.696;10.522;2023-09-18T10:29:35;35.20;;;17.73;;
56005;SDS011;41888;44.696;10.522;2023-09-18T10:32:05;40.80;;;18.52;;
56005;SDS011;41888;44.696;10.522;2023-09-18T10:34:33;37.20;;;19.20;;
56005;SDS011;41888;44.696;10.522;2023-09-18T10:37:01;34.92;;;20.10;;
56005;SDS011;41888;44.696;10.522;2023-09-18T10:39:33;30.08;;;17.52;;
56005;SDS011;41888;44.696;10.522;2023-09-18T10:42:01;32.60;;;18.73;;
56005;SDS011;41888;44.696;10.522;2023-09-18T10:44:29;37.38;;;20.27;;
56005;SDS011;41888;44.696;10.522;2023-09-18T10:47:03;39.97;;;20.58;;
56005;SDS011;41888;44.696;10.522;2023-09-18T10:49:31;31.23;;;19.08;;
56005;SDS011;41888;44.696;10.522;2023-09-18T10:52:00;41.88;;;21.75;;
56005;SDS011;41888;44.696;10.522;2023-09-18T10:54:27;40.03;;;19.30;;
56005;SDS011;41888;44.696;10.522;2023-09-18T10:56:56;37.47;;;18.65;;
56005;SDS011;41888;44.696;10.522;2023-09-18T10:59:22;34.03;;;20.75;;
56005;SDS011;41888;44.696;10.522;2023-09-18T11:01:49;32.80;;;17.52;;
56005;SDS011;41888;44.696;10.522;2023-09-18T11:04:19;36.45;;;20.13;;
56005;SDS011;41888;44.696;10.522;2023-09-18T11:09:20;34.47;;;18.45;;
56005;SDS011;41888;44.696;10.522;2023-09-18T11:12:02;33.72;;;19.45;;
56005;SDS011;41888;44.696;10.522;2023-09-18T11:17:34;32.35;;;17.98;;
56005;SDS011;41888;44.696;10.522;2023-09-18T11:22:40;29.48;;;17.35;;
56005;SDS011;41888;44.696;10.522;2023-09-18T11:25:28;30.52;;;19.30;;
56005;SDS011;41888;44.696;10.522;2023-09-18T11:28:06;30.45;;;18.33;;
56005;SDS011;41888;44.696;10.522;2023-09-18T11:30:37;28.77;;;16.73;;
56005;SDS011;41888;44.696;10.522;2023-09-18T11:33:15;31.25;;;16.13;;
56005;SDS011;41888;44.696;10.522;2023-09-18T11:36:02;25.48;;;15.15;;
56005;SDS011;41888;44.696;10.522;2023-09-18T11:38:31;30.67;;;16.52;;
56005;SDS011;41888;44.696;10.522;2023-09-18T11:43:52;27.48;;;16.67;;
56005;SDS011;41888;44.696;10.522;2023-09-18T11:46:38;23.88;;;16.33;;
56005;SDS011;41888;44.696;10.522;2023-09-18T11:49:13;25.17;;;15.40;;
56005;SDS011;41888;44.696;10.522;2023-09-18T11:51:41;24.60;;;15.60;;
56005;SDS011;41888;44.696;10.522;2023-09-18T11:54:07;19.25;;;12.40;;
56005;SDS011;41888;44.696;10.522;2023-09-18T11:56:35;28.58;;;14.90;;
56005;SDS011;41888;44.696;10.522;2023-09-18T11:59:04;30.23;;;16.98;;
56005;SDS011;41888;44.696;10.522;2023-09-18T12:01:31;34.40;;;20.48;;
56005;SDS011;41888;44.696;10.522;2023-09-18T12:04:01;31.25;;;17.40;;
56005;SDS011;41888;44.696;10.522;2023-09-18T12:06:33;26.23;;;15.65;;
56005;SDS011;41888;44.696;10.522;2023-09-18T12:08:59;27.60;;;17.65;;
56005;SDS011;41888;44.696;10.522;2023-09-18T12:11:26;30.92;;;17.23;;
56005;SDS011;41888;44.696;10.522;2023-09-18T12:13:52;31.38;;;18.42;;
56005;SDS011;41888;44.696;10.522;2023-09-18T12:16:19;27.80;;;16.25;;
56005;SDS011;41888;44.696;10.522;2023-09-18T12:18:45;28.92;;;16.48;;
56005;SDS011;41888;44.696;10.522;2023-09-18T12:21:16;24.58;;;16.05;;
56005;SDS011;41888;44.696;10.522;2023-09-18T12:23:43;31.98;;;17.40;;
56005;SDS011;41888;44.696;10.522;2023-09-18T12:26:14;29.75;;;16.25;;
56005;SDS011;41888;44.696;10.522;2023-09-18T12:28:41;29.80;;;16.20;;
56005;SDS011;41888;44.696;10.522;2023-09-18T12:31:12;41.63;;;17.08;;
56005;SDS011;41888;44.696;10.522;2023-09-18T12:33:39;27.58;;;16.58;;
56005;SDS011;41888;44.696;10.522;2023-09-18T12:36:09;28.33;;;17.13;;
56005;SDS011;41888;44.696;10.522;2023-09-18T12:38:35;23.67;;;15.77;;
56005;SDS011;41888;44.696;10.522;2023-09-18T12:41:02;32.38;;;17.58;;
56005;SDS011;41888;44.696;10.522;2023-09-18T12:43:34;29.80;;;17.13;;
56005;SDS011;41888;44.696;10.522;2023-09-18T12:46:00;24.73;;;16.48;;
56005;SDS011;41888;44.696;10.522;2023-09-18T12:48:28;31.55;;;17.83;;
56005;SDS011;41888;44.696;10.522;2023-09-18T12:50:54;32.63;;;18.27;;
56005;SDS011;41888;44.696;10.522;2023-09-18T12:53:26;35.53;;;19.15;;
56005;SDS011;41888;44.696;10.522;2023-09-18T12:55:53;32.75;;;17.88;;
56005;SDS011;41888;44.696;10.522;2023-09-18T12:58:19;41.13;;;19.75;;
56005;SDS011;41888;44.696;10.522;2023-09-18T13:00:46;33.78;;;18.02;;
56005;SDS011;41888;44.696;10.522;2023-09-18T13:03:16;33.25;;;18.85;;
56005;SDS011;41888;44.696;10.522;2023-09-18T13:05:43;32.28;;;18.70;;
56005;SDS011;41888;44.696;10.522;2023-09-18T13:08:09;33.13;;;17.33;;
56005;SDS011;41888;44.696;10.522;2023-09-18T13:10:47;35.30;;;17.13;;
56005;SDS011;41888;44.696;10.522;2023-09-18T13:13:19;28.50;;;16.65;;
56005;SDS011;41888;44.696;10.522;2023-09-18T13:15:46;31.50;;;16.10;;
56005;SDS011;41888;44.696;10.522;2023-09-18T13:18:14;25.92;;;15.68;;
56005;SDS011;41888;44.696;10.522;2023-09-18T13:20:41;24.00;;;15.10;;
56005;SDS011;41888;44.696;10.522;2023-09-18T13:23:09;25.83;;;12.93;;
56005;SDS011;41888;44.696;10.522;2023-09-18T13:25:36;25.42;;;14.18;;
56005;SDS011;41888;44.696;10.522;2023-09-18T13:28:05;24.17;;;11.45;;
56005;SDS011;41888;44.696;10.522;2023-09-18T13:30:33;21.88;;;8.90;;
56005;SDS011;41888;44.696;10.522;2023-09-18T13:33:13;15.35;;;7.18;;
56005;SDS011;41888;44.696;10.522;2023-09-18T13:35:42;25.83;;;8.48;;
56005;SDS011;41888;44.696;10.522;2023-09-18T13:38:10;17.50;;;6.78;;
56005;SDS011;41888;44.696;10.522;2023-09-18T13:40:37;22.55;;;6.30;;
56005;SDS011;41888;44.696;10.522;2023-09-18T13:43:04;17.58;;;4.80;;
56005;SDS011;41888;44.696;10.522;2023-09-18T13:45:32;22.92;;;4.95;;
56005;SDS011;41888;44.696;10.522;2023-09-18T13:48:00;20.70;;;5.90;;
56005;SDS011;41888;44.696;10.522;2023-09-18T13:50:27;13.48;;;3.97;;
56005;SDS011;41888;44.696;10.522;2023-09-18T13:52:53;23.33;;;4.60;;
56005;SDS011;41888;44.696;10.522;2023-09-18T13:55:19;23.35;;;4.50;;
56005;SDS011;41888;44.696;10.522;2023-09-18T13:57:45;21.92;;;4.72;;
56005;SDS011;41888;44.696;10.522;2023-09-18T14:00:12;17.67;;;4.18;;
56005;SDS011;41888;44.696;10.522;2023-09-18T14:02:39;18.85;;;4.03;;
56005;SDS011;41888;44.696;10.522;2023-09-18T14:05:06;15.23;;;4.05;;
56005;SDS011;41888;44.696;10.522;2023-09-18T14:07:34;20.15;;;4.35;;
56005;SDS011;41888;44.696;10.522;2023-09-18T14:10:00;18.35;;;3.55;;
56005;SDS011;41888;44.696;10.522;2023-09-18T14:12:29;14.85;;;3.80;;
56005;SDS011;41888;44.696;10.522;2023-09-18T14:14:56;17.58;;;3.90;;
56005;SDS011;41888;44.696;10.522;2023-09-18T14:17:23;14.40;;;5.25;;
56005;SDS011;41888;44.696;10.522;2023-09-18T14:19:49;19.35;;;3.47;;
56005;SDS011;41888;44.696;10.522;2023-09-18T14:22:17;21.65;;;4.63;;
56005;SDS011;41888;44.696;10.522;2023-09-18T14:24:43;15.07;;;3.08;;
56005;SDS011;41888;44.696;10.522;2023-09-18T14:27:09;18.98;;;4.18;;
56005;SDS011;41888;44.696;10.522;2023-09-18T14:29:37;18.60;;;3.25;;
56005;SDS011;41888;44.696;10.522;2023-09-18T14:32:03;14.45;;;3.00;;
56005;SDS011;41888;44.696;10.522;2023-09-18T14:34:31;17.42;;;3.63;;
56005;SDS011;41888;44.696;10.522;2023-09-18T14:37:00;12.80;;;3.40;;
56005;SDS011;41888;44.696;10.522;2023-09-18T14:39:29;9.55;;;2.65;;